createdAt,value
2022-08-08T00:00:54.072Z,2.63
2022-08-08T00:03:32.265Z,2.80
2022-08-08T00:06:34.996Z,2.58
2022-08-08T00:09:59.323Z,2.23
2022-08-08T00:12:59.438Z,2.63
2022-08-08T00:15:59.759Z,2.40
2022-08-08T00:18:57.613Z,2.50
2022-08-08T00:21:56.365Z,2.40
2022-08-08T00:24:48.068Z,2.20
2022-08-08T00:27:37.757Z,2.17
2022-08-08T00:30:25.138Z,2.20
2022-08-08T00:33:18.630Z,2.00
2022-08-08T00:36:25.800Z,2.00
2022-08-08T00:41:06.034Z,2.07
2022-08-08T00:42:36.746Z,2.20
2022-08-08T00:45:54.463Z,2.08
2022-08-08T00:49:00.892Z,1.90
2022-08-08T00:52:03.193Z,1.90
2022-08-08T00:55:10.406Z,2.30
2022-08-08T00:58:20.019Z,1.83
2022-08-08T01:01:37.401Z,2.00
2022-08-08T01:05:10.455Z,1.80
2022-08-08T01:08:31.475Z,1.98
2022-08-08T01:11:55.056Z,1.90
2022-08-08T01:15:11.924Z,2.10
2022-08-08T01:18:53.878Z,2.25
2022-08-08T01:22:23.572Z,1.98
2022-08-08T01:25:57.992Z,2.80
2022-08-08T01:29:35.675Z,2.60
2022-08-08T01:33:00.056Z,2.25
2022-08-08T01:35:53.379Z,1.95
2022-08-08T01:39:07.565Z,2.13
2022-08-08T01:42:36.321Z,2.00
2022-08-08T01:46:02.913Z,2.27
2022-08-08T01:48:54.616Z,1.85
2022-08-08T01:52:32.550Z,1.88
2022-08-08T01:55:25.474Z,2.53
2022-08-08T01:58:38.576Z,2.30
2022-08-08T02:02:00.307Z,2.10
2022-08-08T02:05:55.720Z,2.25
2022-08-08T02:08:56.612Z,2.20
2022-08-08T02:11:58.741Z,2.20
2022-08-08T02:15:14.458Z,2.00
2022-08-08T02:18:40.313Z,2.17
2022-08-08T02:21:50.892Z,2.20
2022-08-08T02:24:47.891Z,2.22
2022-08-08T02:27:44.817Z,2.28
2022-08-08T02:31:01.790Z,2.30
2022-08-08T02:34:14.976Z,2.00
2022-08-08T02:37:09.991Z,2.20
2022-08-08T02:40:29.223Z,2.20
2022-08-08T02:44:42.691Z,2.15
2022-08-08T02:47:35.092Z,2.40
2022-08-08T02:50:55.818Z,2.37
2022-08-08T02:53:52.361Z,2.45
2022-08-08T02:57:12.116Z,2.30
2022-08-08T03:00:31.736Z,2.58
2022-08-08T03:05:03.850Z,2.35
2022-08-08T03:07:02.631Z,2.63
2022-08-08T03:10:33.746Z,2.70
2022-08-08T03:16:02.365Z,2.70
2022-08-08T03:16:52.327Z,2.75
2022-08-08T03:20:03.534Z,2.90
2022-08-08T03:22:57.028Z,2.47
2022-08-08T03:25:46.701Z,2.60
2022-08-08T03:28:43.332Z,3.05
2022-08-08T03:32:06.721Z,2.65
2022-08-08T03:34:53.662Z,2.75
2022-08-08T03:38:55.127Z,2.90
2022-08-08T03:40:55.336Z,2.78
2022-08-08T03:43:55.482Z,3.10
2022-08-08T03:46:49.236Z,3.00
2022-08-08T03:50:00.746Z,2.75
2022-08-08T03:52:45.088Z,2.77
2022-08-08T03:55:58.033Z,2.85
2022-08-08T03:58:38.840Z,3.20
2022-08-08T04:02:13.174Z,2.92
2022-08-08T04:04:46.563Z,3.10
2022-08-08T04:07:36.865Z,3.00
2022-08-08T04:10:22.575Z,3.00
2022-08-08T04:13:18.637Z,3.20
2022-08-08T04:16:07.386Z,3.33
2022-08-08T04:19:00.801Z,3.42
2022-08-08T04:21:48.768Z,3.20
2022-08-08T04:24:34.746Z,3.15
2022-08-08T04:28:02.723Z,3.40
2022-08-08T04:30:29.496Z,3.67
2022-08-08T04:33:22.315Z,3.25
2022-08-08T04:36:08.427Z,3.57
2022-08-08T04:39:20.211Z,3.67
2022-08-08T04:41:58.729Z,3.72
2022-08-08T04:44:47.682Z,3.70
2022-08-08T04:47:36.627Z,3.65
2022-08-08T04:50:37.712Z,3.60
2022-08-08T04:54:37.085Z,3.65
2022-08-08T04:56:32.305Z,3.83
2022-08-08T04:59:19.754Z,4.50
2022-08-08T05:02:15.650Z,4.50
2022-08-08T05:05:05.778Z,3.97
2022-08-08T05:08:01.097Z,4.13
2022-08-08T05:10:48.541Z,4.20
2022-08-08T05:13:58.227Z,4.13
2022-08-08T05:16:51.361Z,3.80
2022-08-08T05:20:11.162Z,4.00
2022-08-08T05:22:52.971Z,4.05
2022-08-08T05:25:41.439Z,3.67
2022-08-08T05:28:41.517Z,3.50
2022-08-08T05:32:04.075Z,3.50
2022-08-08T05:34:46.227Z,3.37
2022-08-08T05:37:49.306Z,3.20
2022-08-08T05:40:46.096Z,3.10
2022-08-08T05:44:02.889Z,2.92
2022-08-08T05:46:41.330Z,3.40
2022-08-08T05:49:34.610Z,3.23
2022-08-08T05:52:31.980Z,3.35
2022-08-08T05:55:19.183Z,3.00
2022-08-08T05:58:17.349Z,2.80
2022-08-08T06:01:07.143Z,2.90
2022-08-08T06:04:06.218Z,2.70
2022-08-08T06:06:56.450Z,3.10
2022-08-08T06:09:59.727Z,2.65
2022-08-08T06:12:50.993Z,2.95
2022-08-08T06:15:50.736Z,2.80
2022-08-08T06:18:42.846Z,2.47
2022-08-08T06:21:48.770Z,2.90
2022-08-08T06:24:37.090Z,2.78
2022-08-08T06:27:38.924Z,2.92
2022-08-08T06:30:28.221Z,2.80
2022-08-08T06:33:37.013Z,2.83
2022-08-08T06:36:53.055Z,2.30
2022-08-08T06:39:55.680Z,2.80
2022-08-08T06:42:56.158Z,2.47
2022-08-08T06:45:48.517Z,2.70
2022-08-08T06:48:36.645Z,2.67
2022-08-08T06:51:25.312Z,2.50
2022-08-08T06:54:32.292Z,2.65
2022-08-08T06:57:17.499Z,3.08
2022-08-08T07:00:11.398Z,2.60
2022-08-08T07:03:04.851Z,2.50
2022-08-08T07:06:02.123Z,2.25
2022-08-08T07:08:53.424Z,2.40
2022-08-08T07:11:51.591Z,2.55
2022-08-08T07:14:49.477Z,2.47
2022-08-08T07:18:01.986Z,2.43
2022-08-08T07:21:02.195Z,2.42
2022-08-08T07:24:12.978Z,2.50
2022-08-08T07:27:16.654Z,2.20
2022-08-08T07:30:12.989Z,2.42
2022-08-08T07:33:01.801Z,2.60
2022-08-08T07:35:51.289Z,2.50
2022-08-08T07:38:41.415Z,2.45
2022-08-08T07:41:29.812Z,2.17
2022-08-08T07:44:40.815Z,2.42
2022-08-08T07:47:39.349Z,2.30
2022-08-08T07:50:27.204Z,2.40
2022-08-08T07:54:02.368Z,2.47
2022-08-08T07:56:43.977Z,2.45
2022-08-08T07:59:37.592Z,2.28
2022-08-08T08:02:35.953Z,2.27
2022-08-08T08:05:33.548Z,2.30
2022-08-08T08:08:27.205Z,2.30
2022-08-08T08:11:19.826Z,2.08
2022-08-08T08:14:10.641Z,2.20
2022-08-08T08:17:03.468Z,2.60
2022-08-08T08:19:59.022Z,1.98
2022-08-08T08:22:47.396Z,2.17
2022-08-08T08:25:43.098Z,2.03
2022-08-08T08:28:32.943Z,2.20
2022-08-08T08:31:20.755Z,2.20
2022-08-08T08:34:06.372Z,2.38
2022-08-08T08:36:54.822Z,2.15
2022-08-08T08:40:01.012Z,2.20
2022-08-08T08:42:48.352Z,2.28
2022-08-08T08:45:38.714Z,2.00
2022-08-08T08:48:24.707Z,2.10
2022-08-08T08:51:14.363Z,1.90
2022-08-08T08:54:02.922Z,2.55
2022-08-08T08:56:55.442Z,2.30
2022-08-08T09:00:01.655Z,2.17
2022-08-08T09:02:52.335Z,2.33
2022-08-08T09:05:54.170Z,1.90
2022-08-08T09:08:44.770Z,2.00
2022-08-08T09:11:47.800Z,1.90
2022-08-08T09:14:46.955Z,2.00
2022-08-08T09:17:41.068Z,1.80
2022-08-08T09:22:01.962Z,2.08
2022-08-08T09:23:38.202Z,1.90
2022-08-08T09:26:49.700Z,2.10
2022-08-08T09:29:52.574Z,1.80
2022-08-08T09:32:50.271Z,1.77
2022-08-08T09:35:52.281Z,1.73
2022-08-08T09:38:58.044Z,2.00
2022-08-08T09:41:55.017Z,2.10
2022-08-08T09:45:15.367Z,1.70
2022-08-08T09:48:17.792Z,2.08
2022-08-08T09:51:08.863Z,2.28
2022-08-08T09:54:08.435Z,1.70
2022-08-08T09:57:02.814Z,1.98
2022-08-08T10:00:27.611Z,1.97
2022-08-08T10:03:03.181Z,2.17
2022-08-08T10:05:49.682Z,2.05
2022-08-08T10:08:43.916Z,2.20
2022-08-08T10:12:23.214Z,2.00
2022-08-08T10:14:39.179Z,1.83
2022-08-08T10:17:56.720Z,2.20
2022-08-08T10:20:57.438Z,1.90
2022-08-08T10:23:58.570Z,1.90
2022-08-08T10:26:57.394Z,2.28
2022-08-08T10:30:03.838Z,2.07
2022-08-08T10:32:54.988Z,1.98
2022-08-08T10:36:08.258Z,1.60
2022-08-08T10:38:46.507Z,1.90
2022-08-08T10:41:35.464Z,2.00
2022-08-08T10:44:40.622Z,2.10
2022-08-08T10:47:25.765Z,2.00
2022-08-08T10:50:16.116Z,1.80
2022-08-08T10:53:07.522Z,1.98
2022-08-08T10:55:59.908Z,1.88
2022-08-08T10:58:54.575Z,1.90
2022-08-08T11:01:40.126Z,2.03
2022-08-08T11:04:39.265Z,1.90
2022-08-08T11:08:30.352Z,1.73
2022-08-08T11:10:35.278Z,2.00
2022-08-08T11:13:28.987Z,2.00
2022-08-08T11:16:32.921Z,2.00
2022-08-08T11:19:23.408Z,1.98
2022-08-08T11:22:09.577Z,1.90
2022-08-08T11:25:01.536Z,2.30
2022-08-08T11:27:48.896Z,2.00
2022-08-08T11:30:35.245Z,1.90
2022-08-08T11:33:51.826Z,1.92
2022-08-08T11:36:36.475Z,2.22
2022-08-08T11:39:22.429Z,2.05
2022-08-08T11:42:09.071Z,2.40
2022-08-08T11:44:55.247Z,2.50
2022-08-08T11:48:04.696Z,2.97
2022-08-08T11:50:47.960Z,2.45
2022-08-08T11:53:42.736Z,2.72
2022-08-08T11:56:42.179Z,2.80
2022-08-08T12:00:00.290Z,2.42
2022-08-08T12:02:52.115Z,2.70
2022-08-08T12:05:40.850Z,2.70
2022-08-08T12:08:33.867Z,2.35
2022-08-08T12:11:26.946Z,2.70
2022-08-08T12:14:29.383Z,2.67
2022-08-08T12:17:14.677Z,2.60
2022-08-08T12:20:00.071Z,2.85
2022-08-08T12:22:51.141Z,2.63
2022-08-08T12:25:38.444Z,2.70
2022-08-08T12:28:37.793Z,2.88
2022-08-08T12:31:39.004Z,2.55
2022-08-08T12:34:39.735Z,2.97
2022-08-08T12:37:40.776Z,3.03
2022-08-08T12:40:57.268Z,3.30
2022-08-08T12:43:59.932Z,3.40
2022-08-08T12:46:58.842Z,4.03
2022-08-08T12:49:55.093Z,3.70
2022-08-08T12:52:42.124Z,3.30
2022-08-08T12:55:35.362Z,3.40
2022-08-08T12:58:44.796Z,3.67
2022-08-08T13:01:36.960Z,2.85
2022-08-08T13:04:25.855Z,2.97
2022-08-08T13:07:17.022Z,3.08
2022-08-08T13:10:10.635Z,3.33
2022-08-08T13:13:01.457Z,3.20
2022-08-08T13:15:54.751Z,3.28
2022-08-08T13:18:48.902Z,3.05
2022-08-08T13:21:53.311Z,3.22
2022-08-08T13:24:51.257Z,2.97
2022-08-08T13:27:36.196Z,3.22
2022-08-08T13:30:26.477Z,2.95
2022-08-08T13:33:18.363Z,3.25
2022-08-08T13:36:06.186Z,3.00
2022-08-08T13:38:51.505Z,2.83
2022-08-08T13:41:37.797Z,2.70
2022-08-08T13:44:29.020Z,2.50
2022-08-08T13:47:17.792Z,3.05
2022-08-08T13:50:37.160Z,2.70
2022-08-08T13:53:26.233Z,2.97
2022-08-08T13:56:12.394Z,2.70
2022-08-08T13:58:58.405Z,2.60
2022-08-08T14:01:57.971Z,2.90
2022-08-08T14:05:09.287Z,2.80
2022-08-08T14:08:11.713Z,2.83
2022-08-08T14:11:02.568Z,2.38
2022-08-08T14:13:59.469Z,2.75
2022-08-08T14:16:50.267Z,2.60
2022-08-08T14:19:56.274Z,2.58
2022-08-08T14:22:45.897Z,2.40
2022-08-08T14:25:55.763Z,2.13
2022-08-08T14:28:57.211Z,2.70
2022-08-08T14:32:10.903Z,2.92
2022-08-08T14:35:07.481Z,2.38
2022-08-08T14:38:00.834Z,2.50
2022-08-08T14:40:48.222Z,2.50
2022-08-08T14:44:11.120Z,2.63
2022-08-08T14:47:00.267Z,2.42
2022-08-08T14:50:02.456Z,2.60
2022-08-08T14:52:57.036Z,2.10
2022-08-08T14:55:43.274Z,2.60
2022-08-08T14:58:28.505Z,2.53
2022-08-08T15:01:23.839Z,2.20
2022-08-08T15:04:13.097Z,2.20
2022-08-08T15:06:58.075Z,2.40
2022-08-08T15:09:48.135Z,2.38
2022-08-08T15:12:33.317Z,2.20
2022-08-08T15:16:01.273Z,2.22
2022-08-08T15:18:27.753Z,2.35
2022-08-08T15:21:15.076Z,2.20
2022-08-08T15:24:01.118Z,2.20
2022-08-08T15:26:52.700Z,2.10
2022-08-08T15:29:38.599Z,1.98
2022-08-08T15:32:30.482Z,2.40
2022-08-08T15:35:17.875Z,2.10
2022-08-08T15:38:09.893Z,2.70
2022-08-08T15:40:59.144Z,2.10
2022-08-08T15:43:44.668Z,1.90
2022-08-08T15:46:51.005Z,2.20
2022-08-08T15:49:36.734Z,2.60
2022-08-08T15:52:26.207Z,2.60
2022-08-08T15:55:11.300Z,1.95
2022-08-08T15:57:57.957Z,1.92
2022-08-08T16:00:50.575Z,2.28
2022-08-08T16:03:36.368Z,2.30
2022-08-08T16:06:28.878Z,2.10
2022-08-08T16:13:11.833Z,2.33
2022-08-08T16:13:21.466Z,2.15
2022-08-08T16:15:32.743Z,2.00
2022-08-08T16:18:17.925Z,2.10
2022-08-08T16:21:14.751Z,1.90
2022-08-08T16:24:14.365Z,2.28
2022-08-08T16:26:59.401Z,2.28
2022-08-08T16:30:08.299Z,2.10
2022-08-08T16:32:49.781Z,2.57
2022-08-08T16:35:34.957Z,2.15
2022-08-08T16:38:26.422Z,2.10
2022-08-08T16:41:20.298Z,2.50
2022-08-08T16:44:12.219Z,2.13
2022-08-08T16:46:57.702Z,2.07
2022-08-08T16:49:44.099Z,1.92
2022-08-08T16:55:01.398Z,2.22
2022-08-08T16:55:55.139Z,2.08
2022-08-08T16:58:42.349Z,2.30
2022-08-08T17:01:27.758Z,2.10
2022-08-08T17:04:21.667Z,2.10
2022-08-08T17:07:08.269Z,2.20
2022-08-08T17:09:54.964Z,2.35
2022-08-08T17:12:41.530Z,2.10
2022-08-08T17:15:47.658Z,2.10
2022-08-08T17:18:37.721Z,2.15
2022-08-08T17:21:26.286Z,2.20
2022-08-08T17:24:27.066Z,2.00
2022-08-08T17:27:13.968Z,2.13
2022-08-08T17:30:08.287Z,2.00
2022-08-08T17:34:48.602Z,2.20
2022-08-08T17:36:10.157Z,2.30
2022-08-08T17:39:05.282Z,2.10
2022-08-08T17:42:04.948Z,2.05
2022-08-08T17:44:52.333Z,2.30
2022-08-08T17:47:40.347Z,2.17
2022-08-08T17:50:26.759Z,2.00
2022-08-08T17:53:11.777Z,2.25
2022-08-08T17:56:06.888Z,2.03
2022-08-08T17:58:55.909Z,1.93
2022-08-08T18:01:51.407Z,2.10
2022-08-08T18:04:49.396Z,2.35
2022-08-08T18:08:01.850Z,2.10
2022-08-08T18:10:42.031Z,2.08
2022-08-08T18:13:28.142Z,2.27
2022-08-08T18:16:23.597Z,2.20
2022-08-08T18:19:14.956Z,2.00
2022-08-08T18:22:02.669Z,1.98
2022-08-08T18:24:51.062Z,2.15
2022-08-08T18:27:38.197Z,1.93
2022-08-08T18:30:28.302Z,2.30
2022-08-08T18:33:36.420Z,1.90
2022-08-08T18:36:23.226Z,2.10
2022-08-08T18:39:09.978Z,2.30
2022-08-08T18:42:03.559Z,1.97
2022-08-08T18:44:55.697Z,2.30
2022-08-08T18:47:42.590Z,2.47
2022-08-08T18:50:28.319Z,2.33
2022-08-08T18:53:13.476Z,2.08
2022-08-08T18:56:01.667Z,2.20
2022-08-08T18:58:47.184Z,2.35
2022-08-08T19:02:25.691Z,2.30
2022-08-08T19:04:38.121Z,2.53
2022-08-08T19:07:25.726Z,2.40
2022-08-08T19:10:16.230Z,2.30
2022-08-08T19:13:01.625Z,2.08
2022-08-08T19:15:47.445Z,2.17
2022-08-08T19:18:48.444Z,2.03
2022-08-08T19:21:48.648Z,2.30
2022-08-08T19:24:53.659Z,2.20
2022-08-08T19:27:57.003Z,2.40
2022-08-08T19:31:03.568Z,2.25
2022-08-08T19:34:04.531Z,2.30
2022-08-08T19:36:58.876Z,2.30
2022-08-08T19:39:46.147Z,2.00
2022-08-08T19:42:36.203Z,1.95
2022-08-08T19:45:58.886Z,2.20
2022-08-08T19:48:31.221Z,2.30
2022-08-08T19:51:16.724Z,2.13
2022-08-08T19:54:18.978Z,1.80
2022-08-08T19:57:07.383Z,2.13
2022-08-08T19:59:53.297Z,2.25
2022-08-08T20:02:38.955Z,2.10
2022-08-08T20:06:15.874Z,2.10
2022-08-08T20:08:32.050Z,1.90
2022-08-08T20:11:26.509Z,1.75
2022-08-08T20:14:34.177Z,2.20
2022-08-08T20:17:27.006Z,2.08
2022-08-08T20:20:20.498Z,2.10
2022-08-08T20:23:12.457Z,1.90
2022-08-08T20:26:01.138Z,2.00
2022-08-08T20:28:47.525Z,1.90
2022-08-08T20:32:07.757Z,1.88
2022-08-08T20:34:47.859Z,1.90
2022-08-08T20:37:37.098Z,2.17
2022-08-08T20:40:38.897Z,2.00
2022-08-08T20:43:43.721Z,1.77
2022-08-08T20:46:29.744Z,2.20
2022-08-08T20:49:15.149Z,2.05
2022-08-08T20:52:01.668Z,2.50
2022-08-08T20:54:47.765Z,2.30
2022-08-08T20:57:34.726Z,1.83
2022-08-08T21:00:29.153Z,1.95
2022-08-08T21:03:17.152Z,1.88
2022-08-08T21:06:02.191Z,1.80
2022-08-08T21:08:51.749Z,2.20
2022-08-08T21:11:50.354Z,2.10
2022-08-08T21:14:37.128Z,2.20
2022-08-08T21:17:22.303Z,2.10
2022-08-08T21:20:07.736Z,2.00
2022-08-08T21:22:52.768Z,1.90
2022-08-08T21:25:37.706Z,2.10
2022-08-08T21:28:33.595Z,2.10
2022-08-08T21:31:22.133Z,1.75
2022-08-08T21:34:07.481Z,1.97
2022-08-08T21:36:54.639Z,1.80
2022-08-08T21:39:56.230Z,1.80
2022-08-08T21:42:42.071Z,1.95
2022-08-08T21:47:59.268Z,1.98
2022-08-08T21:48:40.285Z,1.90
2022-08-08T21:54:17.401Z,2.08
2022-08-08T21:54:54.966Z,1.75
2022-08-08T21:57:42.095Z,1.80
2022-08-08T22:00:28.351Z,1.90
2022-08-08T22:03:18.931Z,1.87
2022-08-08T22:06:04.126Z,1.92
2022-08-08T22:08:49.016Z,1.70
2022-08-08T22:11:58.815Z,2.10
2022-08-08T22:14:42.564Z,1.70
2022-08-08T22:17:28.222Z,1.80
2022-08-08T22:20:23.568Z,1.70
2022-08-08T22:23:09.106Z,1.73
2022-08-08T22:26:28.044Z,1.95
2022-08-08T22:29:13.742Z,2.05
2022-08-08T22:32:06.415Z,1.73
2022-08-08T22:34:52.468Z,1.95
2022-08-08T22:37:53.756Z,1.60
2022-08-08T22:40:40.846Z,1.90
2022-08-08T22:43:26.699Z,1.65
2022-08-08T22:46:17.099Z,1.70
2022-08-08T22:49:02.747Z,1.50
2022-08-08T22:51:47.936Z,2.30
2022-08-08T22:54:53.888Z,1.73
2022-08-08T22:57:44.325Z,1.85
2022-08-08T23:00:34.825Z,1.80
2022-08-08T23:03:21.703Z,1.60
2022-08-08T23:06:06.846Z,1.52
2022-08-08T23:08:55.904Z,1.70
2022-08-08T23:12:28.535Z,1.75
2022-08-08T23:14:56.391Z,1.60
2022-08-08T23:17:58.183Z,1.70
2022-08-08T23:20:44.239Z,1.80
2022-08-08T23:23:29.808Z,1.67
2022-08-08T23:26:16.767Z,1.77
2022-08-08T23:29:02.761Z,1.90
2022-08-08T23:31:47.848Z,1.70
2022-08-08T23:34:36.545Z,1.60
2022-08-08T23:37:24.530Z,1.80
2022-08-08T23:40:10.453Z,1.75
2022-08-08T23:42:56.075Z,1.50
2022-08-08T23:49:01.115Z,1.63
2022-08-08T23:49:04.911Z,1.45
2022-08-08T23:52:04.555Z,1.70
2022-08-08T23:54:59.978Z,1.90
2022-08-08T23:57:52.192Z,1.80
